createdAt,value
2023-09-23T09:29:20.550Z,6.22
2023-09-23T09:31:55.986Z,2.05
2023-09-23T09:34:32.227Z,2.10
2023-09-23T09:37:06.836Z,0.68
2023-09-23T09:39:45.709Z,2.00
2023-09-23T09:42:24.895Z,0.95
2023-09-23T09:45:00.203Z,0.60
2023-09-23T09:47:32.590Z,4.68
2023-09-23T09:50:05.818Z,0.70
2023-09-23T09:52:44.421Z,0.73
2023-09-23T09:55:20.328Z,1.63
2023-09-23T09:57:56.171Z,1.27
2023-09-23T10:00:28.738Z,0.50
2023-09-23T10:03:02.196Z,0.95
2023-09-23T10:05:33.992Z,2.67
2023-09-23T10:08:17.231Z,0.70
2023-09-23T10:10:50.486Z,1.30
2023-09-23T10:13:25.022Z,2.05
2023-09-23T10:16:14.409Z,3.35
2023-09-23T10:18:55.370Z,2.65
2023-09-23T10:21:31.728Z,2.35
2023-09-23T10:24:06.632Z,0.90
2023-09-23T10:26:44.861Z,2.25
2023-09-23T10:29:16.492Z,1.52
2023-09-23T10:31:48.136Z,0.82
2023-09-23T10:34:19.682Z,2.75
2023-09-23T10:36:52.131Z,0.55
2023-09-23T10:39:24.059Z,2.20
2023-09-23T10:41:55.625Z,1.40
2023-09-23T10:44:27.497Z,1.58
2023-09-23T10:47:00.004Z,0.70
2023-09-23T10:49:31.654Z,3.88
2023-09-23T10:52:03.326Z,0.40
2023-09-23T10:54:36.105Z,0.77
2023-09-23T10:57:07.757Z,0.20
2023-09-23T10:59:39.518Z,0.65
2023-09-23T11:02:12.494Z,0.88
2023-09-23T11:04:50.843Z,1.05
2023-09-23T11:07:22.501Z,0.65
2023-09-23T11:09:55.212Z,1.83
2023-09-23T11:12:33.818Z,1.45
2023-09-23T11:15:08.381Z,2.47
2023-09-23T11:17:42.664Z,1.25
2023-09-23T11:20:14.675Z,1.38
2023-09-23T11:22:46.350Z,2.17
2023-09-23T11:25:19.398Z,0.50
2023-09-23T11:27:52.258Z,0.52
2023-09-23T11:30:24.051Z,1.40
2023-09-23T11:32:57.422Z,0.85
2023-09-23T11:35:29.105Z,0.43
2023-09-23T11:38:00.710Z,0.60
2023-09-23T11:40:32.867Z,0.93
2023-09-23T11:43:05.340Z,1.10
2023-09-23T11:45:36.947Z,0.40
2023-09-23T11:48:10.078Z,1.80
2023-09-23T11:50:42.015Z,0.70
2023-09-23T11:53:14.726Z,1.83
2023-09-23T11:55:46.844Z,0.93
2023-09-23T11:58:18.525Z,1.98
2023-09-23T12:00:50.156Z,1.95
2023-09-23T12:03:21.879Z,0.95
2023-09-23T12:05:55.629Z,0.98
2023-09-23T12:08:28.143Z,4.90
2023-09-23T12:13:31.870Z,1.77
2023-09-23T12:16:03.579Z,1.13
2023-09-23T12:18:35.139Z,0.52
2023-09-23T12:21:06.684Z,9.48
2023-09-23T12:23:38.968Z,2.17
2023-09-23T12:26:13.721Z,3.53
2023-09-23T12:28:45.717Z,1.48
2023-09-23T12:33:49.002Z,2.53
2023-09-23T12:36:20.689Z,4.25
2023-09-23T12:38:53.801Z,1.55
2023-09-23T12:41:25.435Z,1.38
2023-09-23T12:43:58.324Z,2.03
2023-09-23T12:46:29.926Z,1.75
2023-09-23T12:49:01.526Z,2.55
2023-09-23T12:51:33.137Z,2.92
2023-09-23T12:54:05.057Z,2.10
2023-09-23T12:56:39.901Z,0.85
2023-09-23T12:59:11.479Z,2.70
2023-09-23T13:01:44.244Z,1.50
2023-09-23T13:04:15.903Z,2.50
2023-09-23T13:06:48.499Z,2.03
2023-09-23T13:09:20.105Z,0.88
2023-09-23T13:11:51.715Z,1.67
2023-09-23T13:14:23.459Z,0.47
2023-09-23T13:16:55.075Z,1.80
2023-09-23T13:19:26.777Z,0.50
2023-09-23T13:21:58.358Z,0.88
2023-09-23T13:24:32.500Z,1.77
2023-09-23T13:27:05.300Z,3.30
2023-09-23T13:29:36.909Z,4.00
2023-09-23T13:32:08.596Z,1.95
2023-09-23T13:34:40.988Z,1.17
2023-09-23T13:37:14.117Z,0.88
2023-09-23T13:39:45.744Z,1.25
2023-09-23T13:42:17.300Z,0.38
2023-09-23T13:44:51.147Z,1.38
2023-09-23T13:47:22.986Z,1.80
2023-09-23T13:49:54.614Z,0.52
2023-09-23T13:52:26.253Z,1.50
2023-09-23T13:54:58.572Z,2.05
2023-09-23T14:00:02.129Z,0.70
2023-09-23T14:05:05.874Z,2.53
2023-09-23T14:07:38.270Z,0.85
2023-09-23T14:10:20.380Z,3.50
2023-09-23T14:12:53.723Z,3.30
2023-09-23T14:15:25.258Z,0.82
2023-09-23T14:17:57.122Z,1.02
2023-09-23T14:20:29.149Z,6.05
2023-09-23T14:23:00.770Z,0.98
2023-09-23T14:25:32.314Z,4.75
2023-09-23T14:28:04.036Z,1.80
2023-09-23T14:30:35.627Z,0.75
2023-09-23T14:33:07.208Z,1.75
2023-09-23T14:35:38.925Z,2.83
2023-09-23T14:38:10.685Z,2.72
2023-09-23T14:40:42.248Z,1.10
2023-09-23T14:43:13.861Z,1.23
2023-09-23T14:45:45.375Z,1.60
2023-09-23T14:48:17.089Z,1.65
2023-09-23T14:50:48.686Z,1.38
2023-09-23T14:53:21.524Z,1.40
2023-09-23T14:55:53.140Z,1.90
2023-09-23T14:58:25.090Z,1.08
2023-09-23T15:00:56.693Z,1.55
2023-09-23T15:03:28.453Z,0.73
2023-09-23T15:06:00.055Z,2.38
2023-09-23T15:08:33.156Z,0.50
2023-09-23T15:11:07.730Z,1.60
2023-09-23T15:13:40.002Z,2.08
2023-09-23T15:18:43.097Z,1.77
2023-09-23T15:21:14.675Z,1.58
2023-09-23T15:23:46.313Z,1.73
2023-09-23T15:26:18.847Z,2.78
2023-09-23T15:28:50.665Z,2.15
2023-09-23T15:31:22.190Z,0.85
2023-09-23T15:33:53.901Z,0.50
2023-09-23T15:36:25.499Z,1.52
2023-09-23T15:38:57.348Z,3.97
2023-09-23T15:41:28.973Z,1.05
2023-09-23T15:44:00.646Z,1.80
2023-09-23T15:46:32.825Z,0.77
2023-09-23T15:49:04.698Z,5.38
2023-09-23T15:51:36.288Z,2.65
2023-09-23T15:54:07.866Z,1.58
2023-09-23T15:56:41.167Z,0.90
2023-09-23T15:59:13.010Z,1.17
2023-09-23T16:01:44.577Z,1.77
2023-09-23T16:04:16.389Z,1.08
2023-09-23T16:06:48.243Z,1.10
2023-09-23T16:09:20.506Z,1.67
2023-09-23T16:11:53.192Z,0.90
2023-09-23T16:14:26.351Z,1.00
2023-09-23T16:16:58.397Z,0.80
2023-09-23T16:19:30.835Z,1.38
2023-09-23T16:22:03.713Z,2.03
2023-09-23T16:24:35.285Z,1.67
2023-09-23T16:27:06.852Z,1.58
2023-09-23T16:29:38.401Z,1.73
2023-09-23T16:32:10.016Z,1.58
2023-09-23T16:34:41.774Z,3.90
2023-09-23T16:37:13.421Z,2.50
2023-09-23T16:39:45.074Z,1.27
2023-09-23T16:42:16.632Z,2.85
2023-09-23T16:44:48.236Z,1.33
2023-09-23T16:47:19.912Z,1.10
2023-09-23T16:49:51.448Z,2.50
2023-09-23T16:52:22.971Z,1.70
2023-09-23T16:54:54.506Z,2.13
2023-09-23T16:57:26.549Z,2.55
2023-09-23T16:59:58.580Z,1.33
2023-09-23T17:02:30.465Z,3.30
2023-09-23T17:05:02.225Z,8.27
2023-09-23T17:07:33.881Z,4.75
2023-09-23T17:10:05.959Z,2.15
2023-09-23T17:12:38.232Z,1.40
2023-09-23T17:17:41.608Z,1.13
2023-09-23T17:20:15.665Z,3.33
2023-09-23T17:22:47.258Z,1.45
2023-09-23T17:25:18.791Z,0.73
2023-09-23T17:27:50.319Z,4.55
2023-09-23T17:30:22.704Z,3.03
2023-09-23T17:32:54.519Z,1.40
2023-09-23T17:35:26.201Z,0.80
2023-09-23T17:37:57.737Z,1.52
2023-09-23T17:40:29.256Z,1.10
2023-09-23T17:43:00.808Z,1.55
2023-09-23T17:45:32.318Z,2.13
2023-09-23T17:48:04.866Z,1.33
2023-09-23T17:50:37.261Z,2.08
2023-09-23T17:53:08.981Z,8.80
2023-09-23T17:55:40.629Z,15.60
2023-09-23T17:58:12.253Z,4.72
2023-09-23T18:00:43.934Z,4.35
2023-09-23T18:03:16.282Z,11.05
2023-09-23T18:05:47.986Z,27.98
2023-09-23T18:08:19.690Z,18.58
2023-09-23T18:10:54.667Z,14.48
2023-09-23T18:13:28.288Z,7.90
2023-09-23T18:15:59.829Z,15.82
2023-09-23T18:18:31.552Z,8.43
2023-09-23T18:21:03.207Z,5.70
2023-09-23T18:23:35.589Z,4.15
2023-09-23T18:26:07.297Z,2.25
2023-09-23T18:28:39.166Z,2.38
2023-09-23T18:31:10.777Z,7.72
2023-09-23T18:33:42.428Z,6.63
2023-09-23T18:36:14.641Z,3.78
2023-09-23T18:38:46.782Z,2.28
2023-09-23T18:43:50.214Z,2.47
2023-09-23T18:46:21.824Z,2.67
2023-09-23T18:48:53.739Z,3.03
2023-09-23T18:51:25.915Z,1.67
2023-09-23T18:53:57.579Z,1.90
2023-09-23T18:56:29.213Z,1.33
2023-09-23T18:59:01.133Z,1.45
2023-09-23T19:01:33.833Z,1.17
2023-09-23T19:04:05.820Z,1.50
2023-09-23T19:06:37.882Z,1.55
2023-09-23T19:09:10.351Z,4.50
2023-09-23T19:11:41.946Z,4.55
2023-09-23T19:14:16.285Z,1.60
2023-09-23T19:16:47.941Z,3.20
2023-09-23T19:19:19.470Z,4.00
2023-09-23T19:21:51.127Z,2.10
2023-09-23T19:24:22.716Z,3.17
2023-09-23T19:26:57.400Z,6.53
2023-09-23T19:29:29.373Z,2.83
2023-09-23T19:32:01.143Z,1.98
2023-09-23T19:34:33.007Z,2.33
2023-09-23T19:37:04.534Z,2.97
2023-09-23T19:39:38.017Z,2.40
2023-09-23T19:42:10.890Z,3.20
2023-09-23T19:44:43.634Z,2.35
2023-09-23T19:47:17.113Z,3.22
2023-09-23T19:49:51.631Z,6.07
2023-09-23T19:52:23.411Z,4.88
2023-09-23T19:54:55.541Z,6.40
2023-09-23T19:57:30.660Z,7.85
2023-09-23T20:00:05.098Z,4.35
2023-09-23T20:02:36.815Z,3.67
2023-09-23T20:05:11.902Z,4.65
2023-09-23T20:07:43.745Z,3.70
2023-09-23T20:10:16.774Z,3.88
2023-09-23T20:12:48.685Z,1.42
2023-09-23T20:15:20.268Z,2.33
2023-09-23T20:17:57.486Z,3.03
2023-09-23T20:20:30.530Z,2.85
2023-09-23T20:23:05.445Z,2.47
2023-09-23T20:25:37.228Z,2.20
2023-09-23T20:28:09.109Z,3.40
2023-09-23T20:30:40.718Z,4.32
2023-09-23T20:33:12.486Z,3.45
2023-09-23T20:35:45.648Z,1.42
2023-09-23T20:38:17.328Z,0.98
2023-09-23T20:40:50.057Z,1.15
2023-09-23T20:43:21.649Z,1.83
2023-09-23T20:45:53.287Z,0.82
2023-09-23T20:48:25.034Z,2.25
2023-09-23T20:50:57.040Z,1.63
2023-09-23T20:53:28.849Z,1.48
2023-09-23T20:56:00.454Z,1.77
2023-09-23T20:58:32.049Z,2.20
2023-09-23T21:01:05.983Z,3.20
2023-09-23T21:03:37.659Z,10.48
2023-09-23T21:06:09.993Z,2.47
2023-09-23T21:08:41.585Z,3.00
2023-09-23T21:11:14.289Z,2.67
2023-09-23T21:13:46.767Z,3.65
2023-09-23T21:16:18.572Z,10.88
2023-09-23T21:18:50.349Z,11.73
2023-09-23T21:21:23.704Z,9.10
2023-09-23T21:23:55.702Z,7.85
2023-09-23T21:26:30.315Z,7.32
2023-09-23T21:29:01.980Z,3.47
2023-09-23T21:31:34.079Z,3.30
2023-09-23T21:34:05.643Z,2.72
2023-09-23T21:36:40.107Z,1.60
2023-09-23T21:39:12.409Z,2.92
2023-09-23T21:44:15.537Z,2.17
2023-09-23T21:46:47.144Z,2.75
2023-09-23T21:49:18.817Z,1.20
2023-09-23T21:51:50.431Z,4.32
2023-09-23T21:54:22.031Z,2.80
2023-09-23T21:56:53.677Z,1.02
2023-09-23T21:59:25.237Z,4.70
2023-09-23T22:01:56.800Z,3.67
2023-09-23T22:04:28.537Z,1.20
2023-09-23T22:07:00.187Z,3.13
2023-09-23T22:09:31.988Z,3.40
2023-09-23T22:12:03.800Z,2.05
2023-09-23T22:14:35.784Z,3.85
2023-09-23T22:17:07.348Z,2.38
2023-09-23T22:19:40.342Z,3.37
2023-09-23T22:22:17.052Z,1.50
2023-09-23T22:24:48.869Z,1.85
2023-09-23T22:27:21.941Z,3.17
2023-09-23T22:29:54.104Z,2.25
2023-09-23T22:32:25.831Z,2.72
2023-09-23T22:34:57.977Z,1.52
2023-09-23T22:37:29.766Z,1.15
2023-09-23T22:40:03.414Z,2.53
2023-09-23T22:42:35.229Z,1.30
2023-09-23T22:45:13.108Z,2.95
2023-09-23T22:47:52.285Z,2.53
2023-09-23T22:50:24.177Z,2.30
2023-09-23T22:52:57.333Z,2.58
2023-09-23T22:55:29.105Z,2.08
2023-09-23T22:58:00.687Z,2.40
2023-09-23T23:00:36.089Z,2.20
2023-09-23T23:03:08.092Z,3.10
2023-09-23T23:05:40.110Z,1.45
2023-09-23T23:08:12.162Z,3.88
2023-09-23T23:10:43.677Z,1.67
2023-09-23T23:13:15.293Z,1.92
2023-09-23T23:15:49.516Z,1.08
2023-09-23T23:18:21.148Z,2.28
2023-09-23T23:20:52.821Z,2.13
2023-09-23T23:23:25.295Z,2.08
2023-09-23T23:25:57.540Z,7.43
2023-09-23T23:28:29.157Z,2.00
2023-09-23T23:31:01.254Z,4.38
2023-09-23T23:33:33.125Z,0.88
2023-09-23T23:36:06.063Z,2.45
2023-09-23T23:38:38.640Z,3.80
2023-09-23T23:41:10.275Z,1.52
2023-09-23T23:43:41.919Z,2.10
2023-09-23T23:46:14.340Z,1.48
2023-09-23T23:48:48.898Z,4.75
2023-09-23T23:51:23.925Z,3.75
2023-09-23T23:53:55.677Z,1.13
2023-09-23T23:56:28.339Z,3.15
2023-09-23T23:59:01.387Z,3.95
